Terminal Aerodrome Forecast
Issued by NWS

Home | Current Version | Previous Version | Text Only | Print | Product List | Glossary On
Versions: 1 2 3 4 5 6 7 8 9 10 11 12 13 14 15 16
000
FTUS42 KTBW 171743
TAFPGD
TAF
KPGD 171743Z 1718/1818 13010KT P6SM SCT030 SCT250
     FM172300 VRB03KT P6SM FEW030 SCT250
     FM180600 VRB03KT 6SM BR SCT010 SCT250
     FM180900 VRB03KT 3SM BR BKN010
     FM181500 13006KT P6SM SCT040 SCT250=

USA.gov is the U.S. government's official web portal to all federal, state and local government web resources and services.